Time;durP1;ratioP1;P1;durP2;ratioP2;P2;SDS_P1;SDS_P2;PMS_P1;PMS_P2;Temp;Humidity;BMP_temperature;BMP_pressure;BME280_temperature;BME280_humidity;BME280_pressure;Samples;Min_cycle;Max_cycle;Signal;HPM_P1;HPM_P2
2023/07/25 00:02:22;;;;;;;4.40;1.70;;;15.80;99.90;;;;;;5015298;28;20169;-79
2023/07/25 00:04:47;;;;;;;6.43;2.20;;;15.80;99.90;;;;;;5016783;28;20181;-79
2023/07/25 00:07:13;;;;;;;6.03;2.10;;;15.70;99.90;;;;;;5017577;28;20172;-80
2023/07/25 00:09:38;;;;;;;4.37;2.10;;;15.80;99.90;;;;;;5029335;28;20200;-79
2023/07/25 00:12:04;;;;;;;5.33;2.33;;;15.70;99.90;;;;;;5032782;28;20188;-79
2023/07/25 00:14:30;;;;;;;8.97;2.00;;;15.70;99.90;;;;;;5018868;28;20185;-79
2023/07/25 00:16:56;;;;;;;4.53;1.87;;;15.70;99.90;;;;;;5016242;28;20189;-79
2023/07/25 00:19:21;;;;;;;6.20;2.23;;;15.70;99.90;;;;;;5015361;28;20555;-79
2023/07/25 00:21:47;;;;;;;6.37;1.90;;;15.70;99.90;;;;;;5015412;28;20665;-80
2023/07/25 00:24:12;;;;;;;6.07;2.00;;;15.90;99.90;;;;;;5015598;28;20525;-79
2023/07/25 00:26:38;;;;;;;3.70;1.77;;;15.70;99.90;;;;;;5016798;28;20181;-80
2023/07/25 00:29:04;;;;;;;4.00;1.70;;;15.70;99.90;;;;;;5014780;28;20196;-79
2023/07/25 00:31:30;;;;;;;7.33;2.30;;;15.70;99.90;;;;;;5015383;28;20201;-79
2023/07/25 00:33:56;;;;;;;4.67;1.93;;;15.70;99.90;;;;;;5016592;28;20236;-79
2023/07/25 00:36:21;;;;;;;5.63;1.90;;;15.70;99.90;;;;;;5016831;28;20192;-80
2023/07/25 00:38:47;;;;;;;6.37;2.07;;;15.70;99.90;;;;;;5015222;28;20684;-79
2023/07/25 00:41:12;;;;;;;4.13;2.03;;;15.70;99.90;;;;;;5016806;28;20671;-80
2023/07/25 00:43:38;;;;;;;7.13;2.30;;;15.60;99.90;;;;;;5017168;28;20173;-79
2023/07/25 00:46:04;;;;;;;5.93;1.87;;;15.70;99.90;;;;;;5015478;28;20221;-79
2023/07/25 00:48:30;;;;;;;3.60;1.90;;;15.70;99.90;;;;;;5015196;28;20184;-79
2023/07/25 00:50:56;;;;;;;3.83;1.93;;;15.70;99.90;;;;;;5015607;28;20681;-80
2023/07/25 00:53:23;;;;;;;3.10;1.77;;;15.70;99.90;;;;;;5016574;28;20239;-79
2023/07/25 00:55:50;;;;;;;6.23;1.60;;;15.70;99.90;;;;;;5015481;28;20200;-79
2023/07/25 00:58:16;;;;;;;5.50;1.67;;;15.60;99.90;;;;;;5017086;28;20248;-79
2023/07/25 01:00:43;;;;;;;4.37;1.73;;;15.70;99.90;;;;;;5015332;28;20209;-79
2023/07/25 01:03:10;;;;;;;4.63;2.03;;;15.70;99.90;;;;;;5015796;28;20182;-79
2023/07/25 01:05:39;;;;;;;4.90;1.93;;;15.70;99.90;;;;;;5014335;28;20243;-79
2023/07/25 01:08:05;;;;;;;8.23;1.90;;;15.70;99.90;;;;;;5016039;28;20177;-79
2023/07/25 01:10:32;;;;;;;2.67;1.83;;;15.70;99.90;;;;;;5016487;28;20239;-79
2023/07/25 01:12:58;;;;;;;3.90;2.10;;;15.70;99.90;;;;;;5015694;28;20275;-79
2023/07/25 01:15:24;;;;;;;9.20;2.40;;;15.60;99.90;;;;;;5017992;28;20218;-79
2023/07/25 01:17:50;;;;;;;3.50;2.00;;;15.60;99.90;;;;;;5016941;28;20533;-79
2023/07/25 01:20:16;;;;;;;5.20;2.00;;;15.60;99.90;;;;;;5014677;28;20208;-80
2023/07/25 01:22:44;;;;;;;6.40;2.27;;;15.60;99.90;;;;;;5014731;28;20179;-79
2023/07/25 01:25:10;;;;;;;6.70;2.43;;;15.60;99.90;;;;;;5014854;28;20173;-80
2023/07/25 01:27:36;;;;;;;4.90;2.30;;;15.60;99.90;;;;;;5014427;28;20191;-79
2023/07/25 01:30:01;;;;;;;4.47;1.97;;;15.60;99.90;;;;;;5015610;28;20200;-79
2023/07/25 01:32:27;;;;;;;4.63;2.10;;;15.60;99.90;;;;;;5013390;28;20262;-80
2023/07/25 01:34:52;;;;;;;4.93;1.97;;;15.60;99.90;;;;;;5015934;28;20200;-79
2023/07/25 01:37:19;;;;;;;7.83;1.97;;;15.50;99.90;;;;;;5014462;28;20548;-80
2023/07/25 01:39:45;;;;;;;5.03;1.73;;;15.60;99.90;;;;;;5014254;28;20212;-79
2023/07/25 01:42:10;;;;;;;5.33;1.80;;;15.50;99.90;;;;;;5014280;28;20184;-80
2023/07/25 01:44:36;;;;;;;5.50;2.70;;;15.50;99.90;;;;;;5014595;28;20715;-79
2023/07/25 01:47:01;;;;;;;5.40;1.80;;;15.40;99.90;;;;;;5014744;28;20279;-79
2023/07/25 01:49:27;;;;;;;4.83;2.20;;;15.40;99.90;;;;;;5012972;28;20193;-80
2023/07/25 01:51:52;;;;;;;5.13;1.80;;;15.40;99.90;;;;;;5015404;28;20181;-80
2023/07/25 01:54:18;;;;;;;6.30;2.17;;;15.30;99.90;;;;;;5013347;28;20212;-80
2023/07/25 01:56:44;;;;;;;11.43;2.20;;;15.30;99.90;;;;;;5015105;28;20176;-79
2023/07/25 01:59:09;;;;;;;6.27;2.10;;;15.20;99.90;;;;;;5013812;28;20259;-80
2023/07/25 02:01:35;;;;;;;8.10;2.30;;;15.20;99.90;;;;;;5014838;28;20698;-79
2023/07/25 02:04:00;;;;;;;5.03;2.10;;;15.10;99.90;;;;;;5012910;28;20707;-81
2023/07/25 02:06:26;;;;;;;6.77;2.17;;;15.10;99.90;;;;;;5016091;28;20641;-79
2023/07/25 02:08:51;;;;;;;8.10;2.10;;;15.00;99.90;;;;;;5014388;28;20184;-80
2023/07/25 02:11:17;;;;;;;10.67;2.27;;;15.00;99.90;;;;;;5015973;28;20196;-80
2023/07/25 02:13:42;;;;;;;7.60;2.30;;;15.00;99.90;;;;;;5016990;28;20173;-79
2023/07/25 02:16:08;;;;;;;5.00;1.77;;;15.00;99.90;;;;;;5016533;28;20668;-80
2023/07/25 02:18:33;;;;;;;8.13;1.90;;;14.90;99.90;;;;;;5032764;28;20173;-79
2023/07/25 02:20:59;;;;;;;8.10;2.27;;;14.90;99.90;;;;;;5024642;28;20240;-80
2023/07/25 02:23:25;;;;;;;8.57;2.20;;;14.90;99.90;;;;;;5015124;28;20173;-79
2023/07/25 02:25:50;;;;;;;6.17;2.10;;;14.70;99.90;;;;;;5011840;28;20616;-79
2023/07/25 02:28:16;;;;;;;6.27;1.90;;;14.60;99.90;;;;;;5014909;28;20242;-79
2023/07/25 02:30:41;;;;;;;7.33;2.40;;;14.60;99.90;;;;;;5014928;28;20196;-79
2023/07/25 02:33:07;;;;;;;6.83;3.00;;;14.60;99.90;;;;;;5014974;28;20546;-79
2023/07/25 02:35:32;;;;;;;5.77;2.30;;;14.60;99.90;;;;;;5013447;28;20291;-80
2023/07/25 02:37:58;;;;;;;11.20;2.77;;;14.70;99.90;;;;;;5013734;28;20223;-79
2023/07/25 02:40:23;;;;;;;6.40;2.30;;;14.50;99.90;;;;;;5014300;28;20247;-79
2023/07/25 02:42:49;;;;;;;4.03;2.60;;;14.40;99.90;;;;;;5012970;28;20260;-79
2023/07/25 02:45:14;;;;;;;11.37;2.60;;;14.30;99.90;;;;;;5010484;28;20557;-80
2023/07/25 02:47:40;;;;;;;8.80;3.00;;;14.30;99.90;;;;;;5007861;28;20181;-80
2023/07/25 02:50:06;;;;;;;10.30;2.83;;;14.30;99.90;;;;;;5014382;28;20196;-80
2023/07/25 02:52:32;;;;;;;4.50;2.47;;;14.20;99.90;;;;;;5013295;28;20181;-79
2023/07/25 02:54:57;;;;;;;5.20;2.20;;;14.10;99.90;;;;;;5012491;28;20243;-80
2023/07/25 02:57:23;;;;;;;6.27;2.67;;;14.10;99.90;;;;;;5014916;28;20173;-79
2023/07/25 02:59:48;;;;;;;6.03;2.47;;;14.00;99.90;;;;;;5014599;28;20266;-79
2023/07/25 03:02:14;;;;;;;7.57;3.00;;;14.00;99.90;;;;;;5014524;28;20252;-79
2023/07/25 03:04:39;;;;;;;8.43;2.67;;;14.00;99.90;;;;;;5013332;28;20177;-79
2023/07/25 03:07:05;;;;;;;4.77;2.40;;;13.90;99.90;;;;;;5013094;28;20173;-80
2023/07/25 03:09:31;;;;;;;7.77;2.90;;;13.80;99.90;;;;;;5013010;28;20292;-79
2023/07/25 03:11:56;;;;;;;9.03;2.50;;;13.90;99.90;;;;;;5013126;28;20677;-79
2023/07/25 03:14:22;;;;;;;8.40;2.50;;;14.00;99.90;;;;;;5013034;28;21131;-79
2023/07/25 03:16:48;;;;;;;7.20;2.73;;;13.80;99.90;;;;;;5014544;28;20209;-79
2023/07/25 03:19:13;;;;;;;8.33;2.70;;;13.80;99.90;;;;;;5014289;28;20676;-80
2023/07/25 03:21:39;;;;;;;6.23;3.00;;;13.80;99.90;;;;;;5012793;28;20203;-79
2023/07/25 03:24:04;;;;;;;4.73;2.77;;;13.80;99.90;;;;;;5013532;28;20179;-80
2023/07/25 03:26:30;;;;;;;6.33;2.57;;;13.80;99.90;;;;;;5013568;28;20587;-79
2023/07/25 03:28:55;;;;;;;7.87;3.23;;;13.80;99.90;;;;;;5014147;28;20184;-79
2023/07/25 03:31:21;;;;;;;4.90;3.03;;;13.80;99.90;;;;;;5014228;28;20197;-79
2023/07/25 03:33:46;;;;;;;5.50;3.07;;;13.90;99.90;;;;;;5012706;28;20173;-80
2023/07/25 03:36:12;;;;;;;9.00;3.17;;;13.80;99.90;;;;;;5013015;28;20234;-79
2023/07/25 03:38:37;;;;;;;12.37;3.40;;;13.80;99.90;;;;;;5015888;28;20180;-80
2023/07/25 03:41:03;;;;;;;8.07;3.27;;;13.80;99.90;;;;;;5016371;28;20208;-79
2023/07/25 03:43:29;;;;;;;7.03;2.70;;;13.90;99.90;;;;;;5017909;28;20168;-80
2023/07/25 03:45:54;;;;;;;5.53;2.67;;;13.90;99.90;;;;;;5016014;28;20189;-78
2023/07/25 03:48:20;;;;;;;5.40;3.27;;;13.80;99.90;;;;;;5016415;28;20555;-79
2023/07/25 03:50:45;;;;;;;10.13;3.27;;;13.90;99.90;;;;;;5016528;28;20211;-79
2023/07/25 03:53:11;;;;;;;6.83;3.07;;;13.90;99.90;;;;;;5016145;28;20195;-79
2023/07/25 03:55:36;;;;;;;6.63;2.77;;;13.80;99.90;;;;;;5015053;28;20275;-79
2023/07/25 03:58:02;;;;;;;8.60;3.10;;;13.80;99.90;;;;;;5017649;28;20184;-79
2023/07/25 04:00:27;;;;;;;8.30;3.10;;;13.80;99.90;;;;;;5017880;28;20208;-79
2023/07/25 04:02:53;;;;;;;12.03;3.17;;;13.80;99.90;;;;;;5016603;28;20595;-79
2023/07/25 04:05:18;;;;;;;6.67;3.40;;;13.90;99.90;;;;;;5014915;28;20196;-80
2023/07/25 04:07:44;;;;;;;8.67;3.00;;;13.90;99.90;;;;;;5016599;28;20181;-80
2023/07/25 04:10:10;;;;;;;8.07;3.33;;;13.90;99.90;;;;;;5016457;28;20577;-79
2023/07/25 04:12:35;;;;;;;7.47;3.00;;;13.90;99.90;;;;;;5017421;28;20176;-79
2023/07/25 04:15:01;;;;;;;9.57;3.40;;;13.90;99.90;;;;;;5015426;28;20185;-79
2023/07/25 04:17:26;;;;;;;5.07;3.37;;;13.90;99.90;;;;;;5015855;28;20615;-79
2023/07/25 04:19:52;;;;;;;13.47;3.27;;;13.90;99.90;;;;;;5017488;28;20212;-79
2023/07/25 04:22:17;;;;;;;5.40;3.17;;;13.90;99.90;;;;;;5016114;28;20177;-79
2023/07/25 04:24:43;;;;;;;4.30;2.70;;;13.90;99.90;;;;;;5016976;28;20181;-79
2023/07/25 04:27:08;;;;;;;6.47;2.97;;;13.80;99.90;;;;;;5023184;28;20236;-79
2023/07/25 04:29:34;;;;;;;6.60;2.60;;;13.80;99.90;;;;;;5034952;28;20352;-80
2023/07/25 04:31:59;;;;;;;8.80;3.20;;;13.80;99.90;;;;;;5023735;28;20173;-79
2023/07/25 04:34:25;;;;;;;5.07;3.33;;;13.70;99.90;;;;;;5013861;28;20319;-79
2023/07/25 04:36:51;;;;;;;4.10;2.90;;;13.70;99.90;;;;;;5016337;28;20280;-79
2023/07/25 04:39:16;;;;;;;5.30;2.93;;;13.70;99.90;;;;;;5017819;28;20272;-79
2023/07/25 04:41:43;;;;;;;5.33;2.60;;;13.60;99.90;;;;;;5016859;28;20197;-79
2023/07/25 04:44:08;;;;;;;5.30;2.70;;;13.60;99.90;;;;;;5015821;28;20208;-79
2023/07/25 04:46:34;;;;;;;8.27;3.10;;;13.60;99.90;;;;;;5014371;28;20532;-79
2023/07/25 04:49:00;;;;;;;9.63;3.00;;;13.60;99.90;;;;;;5015359;28;20219;-79
2023/07/25 04:51:26;;;;;;;5.20;3.23;;;13.60;99.90;;;;;;5014807;28;20200;-79
2023/07/25 04:53:51;;;;;;;12.13;3.53;;;13.70;99.90;;;;;;5016616;28;20671;-79
2023/07/25 04:56:17;;;;;;;6.73;3.00;;;13.70;99.90;;;;;;5015361;28;20216;-79
2023/07/25 04:58:42;;;;;;;7.83;3.20;;;13.70;99.90;;;;;;5015174;28;20283;-79
2023/07/25 05:01:09;;;;;;;6.07;3.07;;;13.70;99.90;;;;;;5016591;28;20584;-80
2023/07/25 05:03:35;;;;;;;6.03;3.47;;;13.70;99.90;;;;;;5015178;28;20264;-79
2023/07/25 05:06:00;;;;;;;5.73;3.23;;;13.70;99.90;;;;;;5015321;28;20237;-79
2023/07/25 05:08:26;;;;;;;4.07;2.80;;;13.50;99.90;;;;;;5016437;28;20169;-79
2023/07/25 05:10:53;;;;;;;5.83;3.20;;;13.70;99.90;;;;;;5014582;28;20197;-79
2023/07/25 05:13:19;;;;;;;5.07;3.37;;;13.80;99.90;;;;;;5014478;28;20268;-79
2023/07/25 05:15:45;;;;;;;5.23;2.93;;;13.80;99.90;;;;;;5013409;28;20656;-79
2023/07/25 05:18:11;;;;;;;5.90;3.20;;;13.80;99.90;;;;;;5014779;28;20284;-79
2023/07/25 05:20:36;;;;;;;7.33;3.57;;;13.90;99.90;;;;;;5014135;28;20221;-79
2023/07/25 05:23:02;;;;;;;8.47;3.07;;;13.90;99.90;;;;;;5016136;28;20184;-79
2023/07/25 05:25:27;;;;;;;7.13;3.33;;;13.90;99.90;;;;;;5014054;28;20619;-79
2023/07/25 05:27:53;;;;;;;7.07;3.17;;;13.90;99.90;;;;;;5014514;28;20679;-79
2023/07/25 05:30:19;;;;;;;4.80;3.07;;;14.00;99.90;;;;;;5015876;28;20197;-79
2023/07/25 05:32:45;;;;;;;5.93;3.43;;;14.10;99.90;;;;;;5016025;28;20661;-79
2023/07/25 05:35:10;;;;;;;7.83;3.73;;;14.10;99.90;;;;;;5014798;28;20628;-79
2023/07/25 05:37:38;;;;;;;6.57;3.00;;;14.10;99.90;;;;;;5015553;28;20246;-79
2023/07/25 05:40:04;;;;;;;6.77;4.23;;;14.10;99.90;;;;;;5014023;28;20208;-80
2023/07/25 05:42:30;;;;;;;4.23;3.40;;;14.20;99.90;;;;;;5012889;28;20184;-81
2023/07/25 05:44:56;;;;;;;7.67;3.90;;;14.30;99.90;;;;;;5012676;28;20180;-79
2023/07/25 05:47:22;;;;;;;7.57;3.93;;;14.30;99.90;;;;;;5013980;28;20598;-79
2023/07/25 05:49:47;;;;;;;10.00;3.67;;;14.40;99.90;;;;;;5012956;28;20200;-79
2023/07/25 05:52:13;;;;;;;12.87;3.80;;;14.50;99.90;;;;;;5015329;28;20200;-80
2023/07/25 05:54:39;;;;;;;8.63;2.70;;;14.60;99.90;;;;;;5013909;28;20187;-79
2023/07/25 05:57:05;;;;;;;7.93;3.00;;;14.60;99.90;;;;;;5013717;28;20649;-79
2023/07/25 05:59:30;;;;;;;11.10;2.97;;;14.70;99.90;;;;;;5013451;28;20684;-80
2023/07/25 06:01:56;;;;;;;8.23;2.40;;;14.70;99.90;;;;;;5015582;28;20236;-79
2023/07/25 06:04:22;;;;;;;8.60;2.60;;;14.80;99.90;;;;;;5014295;28;20173;-79
2023/07/25 06:06:47;;;;;;;10.20;2.43;;;14.80;99.90;;;;;;5013107;28;20645;-79
2023/07/25 06:09:13;;;;;;;10.30;2.43;;;14.80;99.90;;;;;;5014105;28;20184;-80
2023/07/25 06:11:39;;;;;;;8.03;2.50;;;14.90;99.90;;;;;;5015019;28;20189;-80
2023/07/25 06:14:05;;;;;;;10.67;2.30;;;14.80;99.90;;;;;;5015101;28;20179;-80
2023/07/25 06:16:30;;;;;;;6.13;2.20;;;14.80;99.90;;;;;;5015384;28;20236;-80
2023/07/25 06:18:56;;;;;;;4.90;1.93;;;14.80;99.90;;;;;;5014873;28;20181;-79
2023/07/25 06:21:21;;;;;;;5.97;2.00;;;14.80;99.90;;;;;;5012446;28;20230;-79
2023/07/25 06:23:47;;;;;;;7.30;2.33;;;14.80;99.90;;;;;;5015252;28;20169;-79
2023/07/25 06:26:13;;;;;;;7.67;1.60;;;14.80;99.90;;;;;;5013827;28;20184;-80
2023/07/25 06:28:38;;;;;;;7.47;1.80;;;14.80;99.90;;;;;;5014857;28;20695;-80
2023/07/25 06:31:04;;;;;;;14.03;2.17;;;14.90;99.90;;;;;;5013947;28;20204;-79
2023/07/25 06:33:29;;;;;;;6.23;1.90;;;14.90;99.90;;;;;;5014984;28;20187;-79
2023/07/25 06:35:55;;;;;;;6.30;2.17;;;14.90;99.90;;;;;;5014002;28;20201;-79
2023/07/25 06:38:20;;;;;;;8.63;2.10;;;14.90;99.90;;;;;;5028277;28;20276;-80
2023/07/25 06:40:46;;;;;;;8.20;2.70;;;15.00;99.90;;;;;;5025851;28;20232;-79
2023/07/25 06:43:12;;;;;;;10.53;2.60;;;15.00;99.90;;;;;;5013297;28;20178;-79
2023/07/25 06:45:37;;;;;;;11.90;2.47;;;15.10;99.90;;;;;;5014612;28;20180;-79
2023/07/25 06:48:03;;;;;;;6.37;2.17;;;15.10;99.90;;;;;;5014591;28;20252;-78
2023/07/25 06:50:29;;;;;;;6.30;2.00;;;15.10;99.90;;;;;;5014207;28;20287;-80
2023/07/25 06:52:55;;;;;;;12.27;2.10;;;15.20;99.90;;;;;;5011902;28;20275;-80
2023/07/25 06:55:20;;;;;;;6.67;2.60;;;15.30;99.90;;;;;;5014489;28;20684;-80
2023/07/25 06:57:46;;;;;;;12.57;3.50;;;15.50;99.90;;;;;;5014386;28;20187;-79
2023/07/25 07:00:12;;;;;;;10.53;3.20;;;15.50;99.90;;;;;;5014538;28;20287;-79
2023/07/25 07:02:38;;;;;;;10.33;3.47;;;15.60;99.90;;;;;;5013301;28;20614;-79
2023/07/25 07:05:04;;;;;;;14.17;4.87;;;15.70;99.90;;;;;;5013179;28;20272;-80
2023/07/25 07:07:29;;;;;;;11.10;4.80;;;15.80;99.90;;;;;;5013135;28;20173;-80
2023/07/25 07:09:55;;;;;;;8.87;4.13;;;15.90;99.90;;;;;;5012707;28;20260;-80
2023/07/25 07:12:20;;;;;;;18.63;6.83;;;16.00;99.90;;;;;;5014220;28;20346;-79
2023/07/25 07:14:46;;;;;;;9.90;5.50;;;16.00;99.90;;;;;;5018294;28;20177;-79
2023/07/25 07:17:11;;;;;;;10.87;5.30;;;16.20;1.00;;;;;;5017121;28;20180;-79
2023/07/25 07:19:37;;;;;;;13.57;4.80;;;16.30;1.00;;;;;;5018095;28;20223;-79
2023/07/25 07:22:03;;;;;;;9.67;4.20;;;16.40;1.00;;;;;;5017022;28;20177;-79
2023/07/25 07:24:28;;;;;;;14.30;4.90;;;16.40;1.00;;;;;;5014086;28;20235;-80
2023/07/25 07:26:54;;;;;;;16.77;4.30;;;16.50;1.00;;;;;;5016898;28;20678;-79
2023/07/25 07:29:19;;;;;;;11.50;4.23;;;16.60;1.00;;;;;;5016518;28;20252;-79
2023/07/25 07:31:45;;;;;;;7.37;3.47;;;16.60;1.00;;;;;;5017304;28;20180;-79
2023/07/25 07:34:16;;;;;;;8.57;3.07;;;16.60;1.00;;;;;;5013870;28;20660;-79
2023/07/25 07:36:42;;;;;;;6.93;3.40;;;16.70;1.00;;;;;;5017484;28;20192;-79
2023/07/25 07:39:08;;;;;;;8.63;3.03;;;16.60;1.00;;;;;;5016608;28;20185;-78
2023/07/25 07:41:34;;;;;;;4.77;2.33;;;16.70;1.00;;;;;;5017203;28;20578;-78
2023/07/25 07:44:00;;;;;;;9.10;2.80;;;16.60;1.00;;;;;;5015422;28;20177;-78
2023/07/25 07:46:30;;;;;;;5.87;1.77;;;16.60;1.00;;;;;;5015398;28;20191;-78
2023/07/25 07:48:59;;;;;;;4.63;2.40;;;16.50;1.00;;;;;;5016025;28;20185;-79
2023/07/25 07:51:26;;;;;;;6.80;2.93;;;16.50;1.00;;;;;;5017175;28;20240;-78
2023/07/25 07:53:52;;;;;;;6.23;2.80;;;16.40;1.00;;;;;;5017101;28;20180;-78
2023/07/25 07:56:18;;;;;;;7.63;3.23;;;16.50;1.00;;;;;;5016966;28;20169;-78
2023/07/25 07:58:43;;;;;;;7.77;2.40;;;16.50;1.00;;;;;;5014967;28;20179;-79
2023/07/25 08:01:17;;;;;;;10.27;3.43;;;16.50;1.00;;;;;;5017222;28;20228;-78
2023/07/25 08:03:43;;;;;;;8.70;2.87;;;16.40;1.00;;;;;;5015636;28;20177;-78
2023/07/25 08:06:09;;;;;;;9.47;3.00;;;16.50;1.00;;;;;;5015800;28;20645;-78
2023/07/25 08:08:34;;;;;;;8.67;3.27;;;16.50;1.00;;;;;;5016880;28;20184;-79
2023/07/25 08:11:00;;;;;;;10.60;3.63;;;16.50;1.00;;;;;;5015437;28;20580;-78
2023/07/25 08:13:25;;;;;;;8.37;3.17;;;16.40;1.00;;;;;;5016863;28;20188;-78
2023/07/25 08:15:51;;;;;;;6.63;2.27;;;16.50;1.00;;;;;;5016157;28;20185;-78
2023/07/25 08:18:16;;;;;;;13.03;3.00;;;16.60;1.00;;;;;;5017434;28;20192;-78
2023/07/25 08:20:44;;;;;;;6.87;2.63;;;16.60;1.00;;;;;;5017046;28;20201;-78
2023/07/25 08:23:10;;;;;;;11.63;3.00;;;16.60;1.00;;;;;;5020599;28;20173;-79
2023/07/25 08:25:38;;;;;;;9.73;3.10;;;16.70;1.00;;;;;;5015682;28;20613;-79
2023/07/25 08:28:03;;;;;;;9.47;2.50;;;16.70;1.00;;;;;;5015861;28;20168;-79
2023/07/25 08:30:29;;;;;;;6.97;2.23;;;16.70;99.90;;;;;;5015128;28;20574;-78
2023/07/25 08:32:54;;;;;;;8.20;2.53;;;16.70;1.00;;;;;;5012995;28;20235;-79
2023/07/25 08:35:20;;;;;;;12.93;2.43;;;16.80;1.00;;;;;;5012611;28;20295;-78
2023/07/25 08:37:46;;;;;;;14.10;2.53;;;16.80;99.90;;;;;;5016861;28;20263;-78
2023/07/25 08:40:12;;;;;;;8.47;2.83;;;16.80;99.90;;;;;;5015156;28;20217;-79
2023/07/25 08:42:42;;;;;;;11.60;3.10;;;16.80;99.90;;;;;;5015054;28;20173;-79
2023/07/25 08:45:09;;;;;;;17.07;2.67;;;16.80;99.90;;;;;;5016318;28;20204;-79
2023/07/25 08:47:39;;;;;;;10.20;2.97;;;16.80;99.90;;;;;;5020456;28;20177;-79
2023/07/25 08:50:11;;;;;;;7.40;3.03;;;16.90;99.90;;;;;;5001297;28;20201;-79
2023/07/25 08:52:39;;;;;;;9.43;3.20;;;16.90;99.90;;;;;;5011701;28;20264;-79
2023/07/25 08:55:05;;;;;;;9.07;2.97;;;16.90;99.90;;;;;;4996980;28;20263;-78
2023/07/25 08:57:32;;;;;;;9.47;3.20;;;16.90;99.90;;;;;;4996899;28;20676;-79
2023/07/25 08:59:58;;;;;;;10.90;3.20;;;16.90;99.90;;;;;;4996921;28;20221;-79
2023/07/25 09:02:25;;;;;;;8.40;2.50;;;17.00;99.90;;;;;;4996569;28;20517;-79
2023/07/25 09:04:50;;;;;;;7.27;3.10;;;17.00;99.90;;;;;;5004955;28;20180;-79
2023/07/25 09:07:16;;;;;;;7.93;2.77;;;17.10;99.90;;;;;;5015628;28;20185;-79
2023/07/25 09:09:42;;;;;;;8.60;2.60;;;17.10;99.90;;;;;;5014088;28;20546;-79
2023/07/25 09:12:07;;;;;;;8.13;2.70;;;17.20;99.90;;;;;;5016467;28;20180;-78
2023/07/25 09:14:36;;;;;;;4.37;2.40;;;17.20;99.90;;;;;;5015921;28;20173;-79
2023/07/25 09:17:04;;;;;;;7.90;3.03;;;17.20;99.90;;;;;;5015921;28;20169;-79
2023/07/25 09:19:30;;;;;;;9.90;2.70;;;17.30;99.90;;;;;;5016279;28;20193;-79
2023/07/25 09:21:57;;;;;;;8.13;2.30;;;17.30;99.90;;;;;;5015808;28;20196;-79
2023/07/25 09:24:23;;;;;;;8.13;2.73;;;17.20;99.90;;;;;;5015975;28;20197;-79
2023/07/25 09:26:50;;;;;;;4.43;2.50;;;17.30;99.90;;;;;;5015993;28;20247;-79
2023/07/25 09:29:17;;;;;;;9.43;2.07;;;17.30;99.90;;;;;;5015980;28;20175;-79
2023/07/25 09:31:45;;;;;;;7.93;2.20;;;17.20;99.90;;;;;;5015973;28;20217;-78
2023/07/25 09:34:16;;;;;;;8.10;2.10;;;17.20;99.90;;;;;;5014445;28;20201;-79
2023/07/25 09:36:45;;;;;;;3.20;2.10;;;17.20;99.90;;;;;;5012319;28;20635;-78
2023/07/25 09:39:11;;;;;;;9.73;2.60;;;17.40;99.90;;;;;;5015678;28;20173;-79
2023/07/25 09:41:36;;;;;;;10.63;2.80;;;17.50;99.90;;;;;;5015744;28;20746;-79
2023/07/25 09:44:05;;;;;;;9.67;2.50;;;17.50;99.90;;;;;;5012386;28;20213;-80
2023/07/25 09:46:31;;;;;;;15.47;2.60;;;17.60;99.90;;;;;;5013773;28;20183;-79
2023/07/25 09:48:57;;;;;;;7.20;2.70;;;17.60;99.90;;;;;;5016408;28;20246;-79
2023/07/25 09:51:22;;;;;;;4.47;2.33;;;17.70;99.90;;;;;;5014687;28;20266;-78
2023/07/25 09:53:53;;;;;;;6.30;2.50;;;17.70;99.90;;;;;;5014133;28;20223;-79
2023/07/25 09:56:23;;;;;;;9.53;2.50;;;17.70;99.90;;;;;;5015649;28;20185;-79
2023/07/25 09:58:49;;;;;;;8.57;2.73;;;17.70;99.90;;;;;;5014727;28;20321;-79
2023/07/25 10:01:15;;;;;;;4.13;1.83;;;17.80;99.90;;;;;;5016090;28;20216;-80
2023/07/25 10:03:45;;;;;;;11.50;2.80;;;17.80;99.90;;;;;;5015877;28;20216;-80
2023/07/25 10:06:12;;;;;;;5.23;2.03;;;18.00;99.90;;;;;;5016551;28;20168;-79
2023/07/25 10:08:43;;;;;;;6.10;2.47;;;18.10;99.90;;;;;;5014528;28;20592;-79
2023/07/25 10:11:12;;;;;;;10.27;1.97;;;18.20;99.90;;;;;;5014419;28;20232;-79
2023/07/25 10:13:37;;;;;;;7.57;1.97;;;18.30;99.90;;;;;;5013316;28;20593;-79
2023/07/25 10:16:04;;;;;;;7.33;1.90;;;18.20;99.90;;;;;;5014781;28;20227;-80
2023/07/25 10:18:33;;;;;;;4.67;1.80;;;18.20;99.90;;;;;;5015524;28;20169;-79
2023/07/25 10:20:59;;;;;;;5.37;2.27;;;18.10;99.90;;;;;;5013811;28;20348;-79
2023/07/25 10:23:33;;;;;;;5.33;2.03;;;18.00;99.90;;;;;;5015416;28;20240;-79
2023/07/25 10:26:10;;;;;;;3.67;1.73;;;18.00;99.90;;;;;;5016260;28;20597;-80
2023/07/25 10:28:36;;;;;;;6.27;1.83;;;17.90;99.90;;;;;;5013597;28;20271;-80
2023/07/25 10:31:06;;;;;;;6.80;2.00;;;17.80;99.90;;;;;;5014170;28;20295;-79
2023/07/25 10:33:37;;;;;;;39.73;5.97;;;17.70;99.90;;;;;;5015703;28;20169;-80
2023/07/25 10:36:03;;;;;;;8.87;2.20;;;17.70;1.00;;;;;;5014024;28;20196;-80
2023/07/25 10:38:40;;;;;;;6.13;2.30;;;17.60;1.00;;;;;;5015702;28;20218;-80
2023/07/25 10:41:13;;;;;;;8.73;2.50;;;17.50;1.00;;;;;;5014266;28;20208;-80
2023/07/25 10:43:55;;;;;;;11.47;2.60;;;17.50;1.00;;;;;;5014377;28;20173;-80
2023/07/25 10:46:31;;;;;;;10.03;2.10;;;17.50;1.00;;;;;;5013491;28;20173;-80
2023/07/25 10:49:01;;;;;;;9.53;2.30;;;17.40;99.90;;;;;;5015510;28;20157;-80
2023/07/25 10:51:49;;;;;;;6.67;2.60;;;17.50;1.00;;;;;;5014206;28;20603;-80
2023/07/25 10:54:18;;;;;;;7.17;2.20;;;17.50;1.00;;;;;;5016022;28;20613;-80
2023/07/25 10:57:03;;;;;;;6.53;2.30;;;17.50;1.00;;;;;;5022478;28;20173;-80
2023/07/25 10:59:29;;;;;;;4.47;1.87;;;17.50;1.00;;;;;;5032649;28;20197;-80
2023/07/25 11:01:54;;;;;;;8.20;2.20;;;17.60;99.90;;;;;;5026303;28;20200;-80
2023/07/25 11:04:30;;;;;;;6.97;2.60;;;17.80;99.90;;;;;;5014340;28;20247;-80
2023/07/25 11:06:58;;;;;;;7.50;2.37;;;17.90;99.90;;;;;;5014798;28;20255;-80
2023/07/25 11:09:25;;;;;;;5.17;2.27;;;18.00;99.90;;;;;;5014414;28;20185;-80
2023/07/25 11:11:53;;;;;;;6.30;2.07;;;18.00;99.90;;;;;;5014967;28;20197;-80
2023/07/25 11:14:20;;;;;;;12.13;2.70;;;18.00;99.90;;;;;;5014093;28;20188;-79
2023/07/25 11:16:50;;;;;;;9.10;2.33;;;18.00;99.90;;;;;;5012732;28;20211;-79
2023/07/25 11:19:16;;;;;;;8.30;2.27;;;17.90;99.90;;;;;;5014194;28;20252;-80
2023/07/25 11:21:43;;;;;;;5.10;1.67;;;17.90;99.90;;;;;;5014311;28;20707;-80
2023/07/25 11:24:11;;;;;;;6.13;1.87;;;17.80;1.00;;;;;;5014195;28;20538;-80
2023/07/25 11:26:37;;;;;;;4.07;1.70;;;17.90;1.00;;;;;;5014485;28;20173;-79
2023/07/25 11:29:07;;;;;;;5.43;1.57;;;17.70;1.00;;;;;;5013942;28;20169;-79
2023/07/25 11:31:33;;;;;;;10.10;2.50;;;17.60;99.90;;;;;;5012499;28;20675;-78
2023/07/25 11:34:14;;;;;;;5.93;1.83;;;17.50;99.90;;;;;;5012787;28;20173;-79
2023/07/25 11:36:41;;;;;;;7.90;1.63;;;17.50;99.90;;;;;;5014203;28;20244;-79
2023/07/25 11:39:08;;;;;;;7.33;2.00;;;17.60;99.90;;;;;;5013773;28;20169;-79
2023/07/25 11:41:37;;;;;;;11.77;2.37;;;17.50;99.90;;;;;;5013723;28;20196;-79
2023/07/25 11:44:11;;;;;;;9.53;2.43;;;17.40;1.00;;;;;;5012765;28;20251;-81
2023/07/25 11:46:43;;;;;;;4.77;2.07;;;17.40;99.90;;;;;;5014755;28;20172;-81
2023/07/25 11:49:11;;;;;;;8.93;2.33;;;17.60;1.00;;;;;;5014668;28;20663;-80
2023/07/25 11:51:37;;;;;;;4.83;1.87;;;17.50;1.00;;;;;;5014812;28;20648;-81
2023/07/25 11:54:04;;;;;;;7.47;2.17;;;17.60;1.00;;;;;;5014398;28;20248;-80
2023/07/25 11:56:32;;;;;;;7.23;2.10;;;17.50;99.90;;;;;;5013293;28;20711;-81
2023/07/25 11:58:59;;;;;;;9.57;2.00;;;17.60;1.00;;;;;;5015065;28;20173;-80
2023/07/25 12:01:33;;;;;;;6.73;1.90;;;17.60;99.90;;;;;;5016574;28;20212;-80
2023/07/25 12:04:02;;;;;;;4.07;1.60;;;17.70;99.90;;;;;;5016356;28;20250;-80
2023/07/25 12:06:32;;;;;;;4.50;1.30;;;17.60;99.90;;;;;;5018227;28;20176;-80
2023/07/25 12:09:00;;;;;;;7.67;2.10;;;17.70;99.90;;;;;;5018439;28;20196;-80
2023/07/25 12:11:26;;;;;;;7.00;1.50;;;17.70;99.90;;;;;;5016482;28;20232;-81
2023/07/25 12:13:57;;;;;;;8.53;2.13;;;17.80;99.90;;;;;;5018574;28;20177;-81
2023/07/25 12:16:27;;;;;;;6.67;1.70;;;17.80;99.90;;;;;;5016604;28;20207;-80
2023/07/25 12:19:21;;;;;;;5.13;1.30;;;17.90;99.90;;;;;;5017049;28;20180;-81
2023/07/25 12:21:46;;;;;;;4.57;1.40;;;18.00;99.90;;;;;;5016354;28;20222;-81
2023/07/25 12:24:14;;;;;;;3.73;1.20;;;18.20;99.90;;;;;;5016549;28;20556;-80
2023/07/25 12:26:47;;;;;;;5.47;1.40;;;18.20;99.90;;;;;;5014772;28;20557;-81
2023/07/25 12:29:14;;;;;;;6.83;1.13;;;18.10;99.90;;;;;;5018046;28;20177;-80
2023/07/25 12:31:40;;;;;;;4.13;1.27;;;18.30;99.90;;;;;;5018646;28;20627;-81
2023/07/25 12:34:06;;;;;;;5.20;1.17;;;18.30;99.90;;;;;;5018075;28;20173;-81
2023/07/25 12:36:31;;;;;;;4.93;1.40;;;18.30;63.90;;;;;;5018608;28;20611;-81
2023/07/25 12:38:57;;;;;;;5.57;1.40;;;18.40;99.90;;;;;;5018419;28;20173;-81
2023/07/25 12:41:23;;;;;;;3.33;1.20;;;18.50;99.90;;;;;;5017641;28;20212;-81
2023/07/25 12:43:49;;;;;;;3.07;1.10;;;18.70;99.90;;;;;;5016214;28;20268;-81
2023/07/25 12:46:15;;;;;;;2.43;0.90;;;18.60;90.80;;;;;;5017215;28;20216;-81